Terminal Aerodrome Forecast
Issued by NWS Tuscon, AZ

Home | Current Version | Previous Version | Text Only | Print | Product List | Glossary On
Versions: 1 2 3 4 5 6 7 8 9 10 11 12 13 14
000
FTUS45 KTWC 212335
TAFTUS
TAF
KTUS 212335Z 2200/2224 28014G22KT P6SM FEW070 BKN200
     FM220200 29007KT P6SM BKN180
     FM220700 19005KT P6SM SCT200
     FM221700 VRB03KT P6SM SKC
     FM222000 27008KT P6SM FEW090=

USA.gov is the U.S. government's official web portal to all federal, state and local government web resources and services.